Time;durP1;ratioP1;P1;durP2;ratioP2;P2;SDS_P1;SDS_P2;PMS_P1;PMS_P2;Temp;Humidity;BMP_temperature;BMP_pressure;BME280_temperature;BME280_humidity;BME280_pressure;Samples;Min_cycle;Max_cycle;Signal;HPM_P1;HPM_P2
2022/01/13 00:01:30;;;;;;;13.07;11.77;;;;;;;19.28;43.16;99644.84;6094449;23;20666;-89
2022/01/13 00:03:58;;;;;;;12.23;10.93;;;;;;;15.48;43.03;98990.94;6117515;23;20210;-88
2022/01/13 00:06:25;;;;;;;13.43;12.03;;;;;;;17.74;43.24;99377.06;6118391;23;20167;-89
2022/01/13 00:08:52;;;;;;;12.43;11.20;;;;;;;17.53;43.06;99337.38;6117523;23;20244;-88
2022/01/13 00:11:18;;;;;;;12.83;11.53;;;;;;;19.28;43.19;99652.50;6119277;23;20203;-83
2022/01/13 00:14:08;;;;;;;13.50;12.20;;;;;;;16.33;43.20;99129.34;6117755;23;20194;-81
2022/01/13 00:21:52;;;;;;;12.80;11.53;;;;;;;15.42;43.41;98972.75;6099052;23;20618;-84
2022/01/13 00:24:22;;;;;;;13.23;11.93;;;;;;;15.29;43.24;98959.88;6118328;23;20666;-81
2022/01/13 00:26:48;;;;;;;13.40;12.00;;;;;;;18.60;43.43;99575.25;6120219;23;20179;-82
2022/01/13 00:29:30;;;;;;;13.43;12.13;;;;;;;19.26;43.34;99648.00;6122438;23;20550;-82
2022/01/13 00:32:02;;;;;;;13.23;11.90;;;;;;;15.02;43.24;98943.47;6122794;23;20162;-81
2022/01/13 00:34:30;;;;;;;13.03;11.63;;;;;;;16.53;42.92;99168.94;6098217;23;20195;-82
2022/01/13 00:36:58;;;;;;;13.07;11.67;;;;;;;11.53;42.79;98370.06;6123036;23;20179;-82
2022/01/13 00:39:25;;;;;;;13.60;12.20;;;;;;;11.91;42.81;98374.06;6121989;23;20252;-80
2022/01/13 00:41:51;;;;;;;13.57;12.17;;;;;;;17.56;42.73;99335.03;6122104;23;20179;-81
2022/01/13 00:44:22;;;;;;;13.67;12.27;;;;;;;18.95;42.80;99593.94;6098780;23;20229;-82
2022/01/13 00:46:55;;;;;;;14.07;12.57;;;;;;;16.94;43.06;99225.31;6123572;23;20179;-82
2022/01/13 00:49:22;;;;;;;13.53;12.00;;;;;;;17.73;43.16;99393.09;6122914;23;20164;-81
2022/01/13 00:51:49;;;;;;;13.93;12.53;;;;;;;18.40;43.23;99546.53;6074309;23;20208;-83
2022/01/13 00:54:17;;;;;;;13.17;11.77;;;;;;;16.30;43.26;99135.84;6122521;23;20199;-81
2022/01/13 00:56:43;;;;;;;13.70;11.80;;;;;;;19.11;43.23;99627.41;6098949;23;20171;-82
2022/01/13 00:59:14;;;;;;;13.80;12.40;;;;;;;15.57;43.04;99058.38;6123019;23;20267;-82
2022/01/13 01:01:45;;;;;;;13.57;12.17;;;;;;;9.98;43.27;98135.84;6123186;23;20166;-81
2022/01/13 01:04:15;;;;;;;13.67;12.27;;;;;;;13.47;43.30;98665.69;6097492;23;20199;-82
2022/01/13 01:06:42;;;;;;;13.10;11.80;;;;;;;8.19;43.02;97821.31;6074409;23;20175;-82
2022/01/13 01:09:19;;;;;;;14.30;12.80;;;;;;;16.43;43.05;99197.81;6124205;23;20179;-81
2022/01/13 01:11:48;;;;;;;13.70;12.30;;;;;;;9.51;43.09;98057.34;6100566;23;20159;-83
2022/01/13 01:14:19;;;;;;;14.03;12.63;;;;;;;14.40;42.92;98807.06;6124377;23;20227;-82
2022/01/13 01:16:53;;;;;;;12.87;11.57;;;;;;;19.22;43.06;99668.97;6123209;23;20510;-82
2022/01/13 01:19:27;;;;;;;13.57;12.10;;;;;;;19.30;43.19;99680.66;6124584;23;20555;-83
2022/01/13 01:25:36;;;;;;;13.93;12.53;;;;;;;18.27;43.03;99503.13;6122112;23;20199;-82
2022/01/13 01:27:34;;;;;;;13.90;12.50;;;;;;;19.27;42.97;99680.44;6118732;23;20520;-82
2022/01/13 01:30:13;;;;;;;14.20;12.80;;;;;;;18.03;43.06;99461.50;6145622;23;20175;-81
2022/01/13 01:32:40;;;;;;;13.80;12.40;;;;;;;12.46;42.70;98528.88;6100082;23;20163;-81
2022/01/13 01:35:23;;;;;;;15.03;12.57;;;;;;;13.19;42.89;98650.78;6121863;23;20206;-82
2022/01/13 01:37:52;;;;;;;14.73;13.20;;;;;;;10.31;42.87;98113.56;6102672;23;20242;-86
2022/01/13 01:40:20;;;;;;;14.00;12.53;;;;;;;14.27;42.81;98811.91;6098547;23;20171;-82
2022/01/13 01:42:47;;;;;;;13.90;12.50;;;;;;;17.95;42.81;99470.22;6121364;23;20199;-88
2022/01/13 01:45:14;;;;;;;14.47;12.97;;;;;;;14.64;42.96;98916.84;6098359;23;20191;-87
2022/01/13 01:47:52;;;;;;;14.80;13.20;;;;;;;19.20;43.14;99699.47;6098657;23;20167;-87
2022/01/13 01:50:21;;;;;;;13.17;11.77;;;;;;;13.55;42.79;98778.31;6123911;23;20178;-89
2022/01/13 01:52:55;;;;;;;14.07;12.67;;;;;;;18.33;43.05;99541.75;6123517;23;20167;-87
2022/01/13 01:55:22;;;;;;;13.57;12.23;;;;;;;8.01;42.18;97899.81;6125668;23;20226;-88
2022/01/13 01:57:52;;;;;;;13.97;12.57;;;;;;;16.19;43.03;99203.53;6100211;23;20187;-89
2022/01/13 02:00:21;;;;;;;13.93;12.43;;;;;;;15.33;42.99;99026.06;6123161;23;20166;-89
2022/01/13 02:02:51;;;;;;;13.33;12.03;;;;;;;14.25;42.33;99004.72;6099953;23;20277;-87
2022/01/13 02:05:23;;;;;;;14.40;12.63;;;;;;;11.28;43.03;98350.31;6099147;23;20195;-81
2022/01/13 02:07:57;;;;;;;13.50;12.07;;;;;;;15.14;42.84;98992.50;6101675;23;20163;-83
2022/01/13 02:10:23;;;;;;;14.23;12.83;;;;;;;10.62;42.71;98245.06;6124129;23;20182;-83
2022/01/13 02:12:59;;;;;;;13.10;11.80;;;;;;;19.21;42.51;99716.53;6148119;23;20246;-82
2022/01/13 02:15:32;;;;;;;14.07;12.67;;;;;;;16.64;42.90;99245.88;6100118;23;20203;-81
2022/01/13 02:18:04;;;;;;;14.27;12.77;;;;;;;12.68;42.90;98533.97;6101620;23;20491;-81
2022/01/13 02:20:51;;;;;;;14.30;12.90;;;;;;;18.04;43.17;99492.16;6100451;23;20175;-83
2022/01/13 02:23:38;;;;;;;13.43;12.13;;;;;;;13.21;43.07;98624.03;6100266;23;20199;-81
2022/01/13 02:26:21;;;;;;;13.33;11.93;;;;;;;10.48;42.36;98112.44;6109641;23;20346;-82
2022/01/13 02:28:51;;;;;;;14.50;13.00;;;;;;;16.72;42.91;99210.13;6129149;23;20666;-81
2022/01/13 02:31:22;;;;;;;14.20;12.80;;;;;;;13.37;42.70;98652.22;6106500;23;20159;-82
2022/01/13 02:33:52;;;;;;;13.77;12.37;;;;;;;11.18;42.97;98237.09;6103547;23;20194;-82
2022/01/13 02:36:19;;;;;;;13.57;12.17;;;;;;;16.20;42.78;99130.88;6129921;23;20178;-81
2022/01/13 02:38:50;;;;;;;15.03;13.43;;;;;;;18.47;42.69;99518.22;6129230;23;20178;-81
2022/01/13 02:41:17;;;;;;;13.83;12.40;;;;;;;18.85;42.82;99582.97;6129928;23;20154;-81
2022/01/13 02:43:45;;;;;;;13.57;12.17;;;;;;;19.24;42.79;99649.56;6153232;23;20542;-81
2022/01/13 02:49:14;;;;;;;14.43;12.93;;;;;;;18.87;42.66;99582.34;6130946;23;20163;-81
2022/01/13 02:51:48;;;;;;;14.57;13.07;;;;;;;19.24;42.57;99647.91;6129209;23;20249;-82
2022/01/13 02:54:15;;;;;;;13.47;12.07;;;;;;;14.94;42.92;98913.25;6128790;23;20194;-81
2022/01/13 02:56:43;;;;;;;13.43;12.13;;;;;;;13.93;43.12;98714.00;6104978;23;20175;-81
2022/01/13 02:59:10;;;;;;;13.17;11.77;;;;;;;12.15;43.03;98476.78;6128684;23;20182;-81
2022/01/13 03:01:48;;;;;;;13.43;12.03;;;;;;;16.78;42.89;99236.00;6153884;23;20626;-82
2022/01/13 03:04:21;;;;;;;13.33;12.03;;;;;;;12.70;42.82;98650.97;6152308;23;20205;-83
2022/01/13 03:06:53;;;;;;;13.87;12.37;;;;;;;10.70;42.91;98206.38;6129849;23;20256;-82
2022/01/13 03:09:23;;;;;;;13.20;11.90;;;;;;;17.09;42.85;99333.13;6128985;23;20170;-82
2022/01/13 03:11:50;;;;;;;13.27;11.97;;;;;;;19.14;43.03;99642.94;6129850;23;20179;-81
2022/01/13 03:14:28;;;;;;;13.63;12.33;;;;;;;15.23;42.49;98946.75;6128471;23;20190;-81
2022/01/13 03:16:55;;;;;;;13.23;11.93;;;;;;;15.59;42.97;99002.75;6128358;23;20162;-81
2022/01/13 03:19:27;;;;;;;12.80;11.50;;;;;;;16.32;42.89;99150.41;6129196;23;20409;-82
2022/01/13 03:21:54;;;;;;;13.73;12.33;;;;;;;19.13;43.01;99637.72;6129170;23;20233;-81
2022/01/13 03:24:20;;;;;;;12.93;11.63;;;;;;;10.92;42.67;98354.06;6153255;23;20202;-81
2022/01/13 03:26:49;;;;;;;13.43;12.03;;;;;;;12.24;42.67;98481.66;6128386;23;20174;-83
2022/01/13 03:29:17;;;;;;;13.30;11.90;;;;;;;17.26;42.89;99313.28;6128346;23;20182;-81
2022/01/13 03:31:44;;;;;;;12.80;11.60;;;;;;;13.14;42.46;98649.56;6128966;23;20170;-81
2022/01/13 03:34:13;;;;;;;13.37;12.07;;;;;;;15.94;42.86;99079.81;6104657;23;20202;-81
2022/01/13 03:36:44;;;;;;;12.97;11.67;;;;;;;19.19;43.06;99658.56;6129432;23;20174;-80
2022/01/13 03:39:13;;;;;;;13.50;12.10;;;;;;;18.03;42.99;99459.81;6153279;23;20163;-81
2022/01/13 03:41:42;;;;;;;13.33;12.03;;;;;;;14.78;42.96;98915.38;6104920;23;20182;-88
2022/01/13 03:44:17;;;;;;;12.47;11.17;;;;;;;16.79;42.75;99237.78;6126341;23;20202;-90
2022/01/13 03:46:44;;;;;;;12.30;11.10;;;;;;;16.03;42.83;99101.69;6129323;23;20673;-90
2022/01/13 03:49:13;;;;;;;12.73;11.43;;;;;;;12.12;43.25;98494.16;6153269;23;20185;-89
2022/01/13 03:52:02;;;;;;;12.87;11.57;;;;;;;19.19;43.10;99654.31;6126653;23;20523;-90
2022/01/13 03:54:35;;;;;;;12.43;11.23;;;;;;;19.18;43.16;99651.66;6152526;23;20198;-90
2022/01/13 03:57:39;;;;;;;12.63;11.33;;;;;;;19.17;43.29;99647.34;6151411;23;20178;-90
2022/01/13 04:00:46;;;;;;;12.87;11.57;;;;;;;19.15;43.33;99644.69;6153342;23;20251;-90
2022/01/13 04:03:12;;;;;;;11.37;10.27;;;;;;;18.45;43.13;99515.56;6152340;23;20252;-90
2022/01/13 04:06:09;;;;;;;11.70;10.60;;;;;;;19.15;43.28;99638.69;6152680;23;20205;-90
2022/01/13 04:08:36;;;;;;;12.63;11.33;;;;;;;15.85;43.29;99054.66;6126640;23;20167;-90
2022/01/13 04:11:03;;;;;;;12.20;11.00;;;;;;;16.91;42.98;99243.75;6127434;23;20174;-90
2022/01/13 04:13:50;;;;;;;13.03;11.47;;;;;;;18.32;43.20;99489.06;6151797;23;20170;-81
2022/01/13 04:16:28;;;;;;;12.53;11.33;;;;;;;17.66;43.02;99375.63;6133871;23;20170;-82
2022/01/13 04:19:01;;;;;;;12.00;10.77;;;;;;;18.66;43.31;99547.69;6128345;23;20171;-83
2022/01/13 04:21:27;;;;;;;13.23;11.20;;;;;;;19.20;43.20;99648.47;6128437;23;20182;-81
2022/01/13 04:23:57;;;;;;;12.30;11.10;;;;;;;18.16;43.28;99485.41;6131100;23;20198;-91
2022/01/13 04:26:53;;;;;;;10.43;9.43;;;;;;;19.22;43.10;99668.97;6136163;23;20696;-92
2022/01/13 04:30:00;;;;;;;11.60;10.50;;;;;;;17.66;43.27;99419.75;6144845;23;20165;-93
2022/01/13 04:32:56;;;;;;;12.03;10.83;;;;;;;17.55;42.99;99384.09;6034806;23;20183;-93
2022/01/13 04:35:51;;;;;;;12.00;10.80;;;;;;;18.74;43.02;99581.34;6019925;23;20247;-93
2022/01/13 04:42:54;;;;;;;12.33;11.07;;;;;;;19.26;43.00;99678.59;5977862;23;20178;-93
2022/01/13 04:45:49;;;;;;;11.27;10.10;;;;;;;19.24;43.10;99668.31;6085574;23;20233;-92
2022/01/13 04:48:27;;;;;;;12.10;10.90;;;;;;;17.68;42.80;99397.84;6132616;23;20189;-93
2022/01/13 04:51:27;;;;;;;11.20;10.07;;;;;;;19.26;43.05;99668.41;6109197;23;20209;-92
2022/01/13 04:54:44;;;;;;;12.40;11.17;;;;;;;19.25;43.23;99672.66;6076038;23;20174;-93
2022/01/13 05:01:20;;;;;;;10.70;9.70;;;;;;;17.69;43.11;99402.16;6058841;23;20211;-92
2022/01/13 05:04:26;;;;;;;11.87;10.67;;;;;;;16.19;43.41;99145.19;6110554;23;20272;-92
2022/01/13 05:07:07;;;;;;;10.67;9.63;;;;;;;17.62;43.00;99392.28;6129601;23;20178;-92
2022/01/13 05:09:39;;;;;;;11.43;10.33;;;;;;;16.76;42.97;99240.09;6109532;23;20257;-93
2022/01/13 05:12:42;;;;;;;12.40;10.93;;;;;;;16.77;43.16;99279.94;6101990;23;20182;-92
2022/01/13 05:15:44;;;;;;;11.47;10.37;;;;;;;17.56;42.93;99427.44;6106316;23;20194;-93
2022/01/13 05:24:56;;;;;;;12.47;11.20;;;;;;;17.30;43.29;99362.69;6005608;23;20239;-92
2022/01/13 05:27:28;;;;;;;11.33;10.23;;;;;;;18.04;42.82;99481.06;5969533;23;20189;-93
2022/01/13 05:30:45;;;;;;;11.97;10.87;;;;;;;16.15;43.09;99129.63;5994256;23;20213;-92
2022/01/13 05:33:12;;;;;;;11.77;10.67;;;;;;;18.31;43.30;99525.47;5969633;23;20237;-90
2022/01/13 05:35:39;;;;;;;11.37;10.27;;;;;;;17.97;43.09;99461.91;5992457;23;20245;-91
2022/01/13 05:38:07;;;;;;;11.57;10.47;;;;;;;17.89;42.86;99454.50;6051525;23;20197;-92
2022/01/13 05:40:37;;;;;;;12.83;11.13;;;;;;;18.21;43.14;99511.19;6133318;23;20178;-93
2022/01/13 05:43:39;;;;;;;12.37;11.07;;;;;;;16.34;43.19;99206.34;6133390;23;20209;-92
2022/01/13 05:49:29;;;;;;;10.47;9.43;;;;;;;17.52;42.92;99410.19;6065559;23;20151;-92
2022/01/13 05:52:20;;;;;;;11.37;10.27;;;;;;;18.20;43.13;99530.66;6030164;23;20300;-92
2022/01/13 05:54:58;;;;;;;11.63;10.43;;;;;;;17.58;43.12;99423.34;6027673;23;20283;-93
2022/01/13 05:57:48;;;;;;;11.80;10.60;;;;;;;17.62;43.42;99425.34;6065546;23;20174;-94
2022/01/13 06:00:20;;;;;;;11.63;10.43;;;;;;;18.65;43.39;99613.78;6110165;23;20158;-94
2022/01/13 06:03:04;;;;;;;10.80;9.80;;;;;;;16.53;43.22;99251.78;6112931;23;20201;-92
2022/01/13 06:05:32;;;;;;;11.50;10.40;;;;;;;17.60;43.39;99437.09;6084517;23;20194;-91
2022/01/13 06:07:58;;;;;;;11.70;10.50;;;;;;;17.37;43.25;99410.66;6129174;23;20201;-90
2022/01/13 06:10:28;;;;;;;11.27;10.17;;;;;;;18.83;43.40;99653.34;6106121;23;20393;-91
2022/01/13 06:12:55;;;;;;;11.97;10.77;;;;;;;16.87;43.45;99342.47;6106033;23;20241;-91
2022/01/13 06:15:37;;;;;;;12.20;11.00;;;;;;;18.70;43.02;99643.00;6130099;23;20619;-91
2022/01/13 06:18:14;;;;;;;10.63;9.63;;;;;;;16.98;43.38;99333.97;6134493;23;20166;-91
2022/01/13 06:20:44;;;;;;;11.27;10.17;;;;;;;17.61;43.04;99471.91;6087633;23;20170;-91
2022/01/13 06:23:15;;;;;;;11.60;10.47;;;;;;;17.49;43.21;99465.00;6107449;23;20558;-91
2022/01/13 06:26:06;;;;;;;10.43;9.47;;;;;;;17.61;43.20;99451.56;6132592;23;20281;-90
2022/01/13 06:28:33;;;;;;;12.17;10.97;;;;;;;17.42;43.34;99425.50;6083636;23;20244;-91
2022/01/13 06:31:28;;;;;;;10.57;9.57;;;;;;;19.12;43.09;99741.34;6108069;23;20182;-91
2022/01/13 06:34:56;;;;;;;10.53;9.53;;;;;;;19.16;43.14;99732.25;6132345;23;20194;-91
2022/01/13 06:41:54;;;;;;;;;;;;;;;;;;;;;
2022/01/13 06:52:36;;;;;;;10.67;9.57;;;;;;;16.09;43.27;99203.59;5900949;24;20183;-91
2022/01/13 06:55:06;;;;;;;10.60;9.50;;;;;;;18.67;43.13;99681.88;5841028;24;20201;-91
2022/01/13 06:57:46;;;;;;;9.70;8.80;;;;;;;18.54;42.95;99623.19;5849617;24;20181;-91
2022/01/13 07:00:33;;;;;;;10.30;9.30;;;;;;;18.59;43.20;99643.91;5850441;24;20188;-91
2022/01/13 07:03:03;;;;;;;10.80;9.77;;;;;;;17.98;43.31;99537.47;5848493;24;20646;-91
2022/01/13 07:05:39;;;;;;;10.20;9.20;;;;;;;18.18;43.03;99556.78;5847439;24;20205;-92
2022/01/13 07:08:17;;;;;;;10.57;9.57;;;;;;;17.84;43.41;99517.75;5849472;24;20185;-92
2022/01/13 07:10:46;;;;;;;10.57;9.57;;;;;;;17.67;42.89;99482.53;5833672;24;20204;-92
2022/01/13 07:13:22;;;;;;;11.03;9.93;;;;;;;17.88;43.22;99518.84;5976902;23;20540;-88
2022/01/13 07:15:49;;;;;;;10.83;9.73;;;;;;;18.79;43.21;99687.00;6017713;23;20228;-91
2022/01/13 07:18:16;;;;;;;11.43;10.30;;;;;;;19.02;43.88;99744.00;6078309;23;20210;-91
2022/01/13 07:20:43;;;;;;;10.83;9.73;;;;;;;18.73;42.91;99686.53;6129977;23;20217;-91
2022/01/13 07:23:09;;;;;;;11.40;10.27;;;;;;;18.79;43.14;99684.44;6081000;23;20210;-91
2022/01/13 07:25:36;;;;;;;10.77;9.67;;;;;;;19.02;43.13;99745.63;6104595;23;20276;-91
2022/01/13 07:28:05;;;;;;;10.73;9.73;;;;;;;18.98;43.20;99724.13;6080956;23;20210;-91
2022/01/13 07:30:33;;;;;;;10.70;9.70;;;;;;;18.79;43.28;99695.53;6083699;23;20241;-92
2022/01/13 07:32:59;;;;;;;11.27;10.07;;;;;;;18.60;43.13;99663.47;6106366;23;20178;-91
2022/01/13 07:35:26;;;;;;;11.97;10.77;;;;;;;18.72;43.20;99689.88;6105092;23;20198;-91
2022/01/13 07:37:53;;;;;;;11.03;9.93;;;;;;;18.50;43.08;99658.50;6105958;23;20210;-92
2022/01/13 07:40:19;;;;;;;10.30;9.30;;;;;;;18.06;43.44;99573.69;6084009;23;20165;-91
2022/01/13 07:42:46;;;;;;;10.73;9.63;;;;;;;19.14;43.47;99765.28;6083208;23;20201;-91
2022/01/13 07:45:14;;;;;;;9.33;8.43;;;;;;;18.32;43.59;99618.88;6106133;23;20225;-91
2022/01/13 07:47:41;;;;;;;9.93;8.93;;;;;;;19.10;43.42;99759.84;6105001;23;20178;-91
2022/01/13 07:50:09;;;;;;;10.03;9.03;;;;;;;18.40;43.37;99646.72;6081426;23;20292;-90
2022/01/13 07:52:35;;;;;;;10.27;9.27;;;;;;;18.55;43.72;99680.97;6105032;23;20178;-92
2022/01/13 07:55:03;;;;;;;9.70;8.73;;;;;;;19.07;43.48;99764.72;6080778;23;20191;-91
2022/01/13 07:57:29;;;;;;;10.07;9.07;;;;;;;19.00;43.55;99759.91;6104715;23;20217;-91
2022/01/13 07:59:56;;;;;;;9.77;8.87;;;;;;;18.37;43.52;99645.56;6080826;23;20175;-91
2022/01/13 08:02:26;;;;;;;9.67;8.77;;;;;;;18.80;43.77;99717.66;6104608;23;20225;-92
2022/01/13 08:04:52;;;;;;;10.20;9.20;;;;;;;18.57;43.59;99679.44;6104298;23;20202;-89
2022/01/13 08:07:19;;;;;;;10.17;9.13;;;;;;;19.13;43.57;99770.28;6090540;23;20167;-93
2022/01/13 08:09:46;;;;;;;10.30;9.30;;;;;;;19.06;43.62;99765.47;6090211;23;20174;-93
2022/01/13 08:12:13;;;;;;;10.00;9.00;;;;;;;18.40;43.42;99643.28;6087225;23;20638;-92
2022/01/13 08:14:40;;;;;;;15.23;13.73;;;;;;;18.49;42.63;99690.69;6086457;23;20217;-92
2022/01/13 08:17:08;;;;;;;19.80;17.67;;;;;;;18.38;41.49;99653.34;6141798;23;20174;-91
2022/01/13 08:19:47;;;;;;;24.70;22.10;;;;;;;19.20;39.68;99809.06;6121199;23;20162;-93
2022/01/13 08:22:15;;;;;;;28.23;24.77;;;;;;;18.79;38.97;99727.75;6119161;23;20162;-93
2022/01/13 08:24:42;;;;;;;32.27;27.13;;;;;;;18.26;37.75;99652.38;6113292;23;20218;-93
2022/01/13 08:27:09;;;;;;;30.67;26.60;;;;;;;18.61;37.05;99694.16;6134905;23;20197;-92
2022/01/13 08:29:35;;;;;;;34.43;28.93;;;;;;;18.94;36.72;99750.16;6117296;23;20174;-94
2022/01/13 08:32:02;;;;;;;33.67;29.23;;;;;;;18.77;36.33;99725.09;6120098;23;20217;-93
2022/01/13 08:34:29;;;;;;;36.73;29.80;;;;;;;18.73;36.28;99730.72;6108231;23;20269;-92
2022/01/13 08:36:55;;;;;;;35.17;29.77;;;;;;;18.92;36.17;99758.47;6108434;23;20178;-91
2022/01/13 08:39:22;;;;;;;36.17;30.10;;;;;;;18.77;35.83;99736.97;6107044;23;20657;-91
2022/01/13 08:41:49;;;;;;;37.50;29.37;;;;;;;18.36;35.98;99667.59;6107513;23;20705;-91
2022/01/13 08:44:15;;;;;;;37.03;30.77;;;;;;;18.68;36.18;99724.41;6136096;23;20205;-91
2022/01/13 08:46:42;;;;;;;32.33;28.23;;;;;;;18.52;36.76;99711.28;6104218;23;20179;-91
2022/01/13 08:49:09;;;;;;;32.87;27.90;;;;;;;18.50;37.53;99711.97;6104382;23;20225;-92
2022/01/13 08:51:36;;;;;;;35.93;28.80;;;;;;;18.44;38.35;99696.22;6108414;23;20182;-93
2022/01/13 08:54:03;;;;;;;33.80;27.70;;;;;;;18.34;38.48;99701.34;6135759;23;20209;-96
2022/01/13 08:56:30;;;;;;;32.43;27.57;;;;;;;18.53;39.07;99725.78;6112009;23;20170;-90
2022/01/13 09:25:49;;;;;;;25.03;22.23;;;;;;;18.46;40.29;99695.56;6185111;23;20224;-90
2022/01/13 09:28:15;;;;;;;25.77;21.53;;;;;;;18.23;40.26;99658.16;6110793;23;20173;-90
2022/01/13 09:30:42;;;;;;;24.67;20.73;;;;;;;18.20;40.33;99650.28;6110978;23;20466;-91
2022/01/13 09:33:09;;;;;;;25.57;21.40;;;;;;;16.57;40.40;99406.06;6113145;23;20606;-91
2022/01/13 09:35:35;;;;;;;24.00;21.33;;;;;;;18.29;40.58;99659.38;6108192;23;20245;-91
2022/01/13 09:38:02;;;;;;;25.10;21.67;;;;;;;19.05;40.67;99779.00;6133366;23;20178;-91
2022/01/13 09:40:29;;;;;;;24.13;20.77;;;;;;;18.85;40.41;99746.03;6109506;23;20181;-92
2022/01/13 09:42:56;;;;;;;23.53;20.20;;;;;;;18.57;40.38;99694.72;6134704;23;20174;-91
2022/01/13 09:45:23;;;;;;;25.87;19.93;;;;;;;18.78;40.39;99728.53;6108699;23;20194;-91
2022/01/13 09:47:51;;;;;;;24.00;20.83;;;;;;;18.27;40.54;99649.97;6131929;23;20672;-92
2022/01/13 09:50:22;;;;;;;24.83;21.30;;;;;;;18.71;40.58;99724.63;6132207;23;20567;-93
2022/01/13 09:52:48;;;;;;;23.33;20.13;;;;;;;18.67;40.64;99706.44;6130910;23;20254;-92
2022/01/13 09:55:15;;;;;;;22.03;19.63;;;;;;;18.63;40.57;99712.09;6132385;23;20202;-92
2022/01/13 09:57:43;;;;;;;22.47;20.13;;;;;;;19.02;40.55;99759.28;6132870;23;20467;-92
2022/01/13 10:00:12;;;;;;;23.07;20.57;;;;;;;18.94;40.64;99747.63;6107808;23;20166;-92
2022/01/13 10:02:39;;;;;;;24.40;19.07;;;;;;;18.91;40.50;99737.19;6132670;23;20629;-92
2022/01/13 10:05:07;;;;;;;22.13;19.50;;;;;;;18.70;40.52;99699.94;6109573;23;20198;-92
2022/01/13 10:07:44;;;;;;;20.60;17.87;;;;;;;18.70;40.67;99699.94;6111457;23;20174;-93
2022/01/13 10:10:24;;;;;;;24.50;20.00;;;;;;;17.83;40.78;99563.41;6114146;23;20186;-92
2022/01/13 10:13:00;;;;;;;20.37;18.27;;;;;;;18.39;40.79;99650.06;6084234;23;20490;-92
2022/01/13 10:18:12;;;;;;;20.37;18.17;;;;;;;18.11;40.92;99613.06;6114284;23;20610;-92
2022/01/13 10:20:38;;;;;;;18.30;16.40;;;;;;;18.73;40.77;99696.72;6106197;23;20201;-92
2022/01/13 10:23:09;;;;;;;20.53;17.87;;;;;;;18.97;40.86;99732.56;6130671;23;20229;-92
2022/01/13 10:25:39;;;;;;;19.57;17.40;;;;;;;14.31;40.95;98934.41;6109752;23;20199;-85
2022/01/13 10:28:22;;;;;;;19.40;16.57;;;;;;;17.71;40.85;99509.94;6077428;23;20695;-79
2022/01/13 10:30:50;;;;;;;20.23;17.23;;;;;;;17.81;41.13;99530.22;6102860;23;20221;-83
2022/01/13 10:33:22;;;;;;;18.40;16.47;;;;;;;18.51;41.06;99665.34;6102700;23;20630;-82
2022/01/13 10:35:50;;;;;;;20.00;16.67;;;;;;;18.47;41.02;99651.47;6074326;23;20201;-81
2022/01/13 10:38:17;;;;;;;18.77;16.67;;;;;;;19.22;41.33;99786.25;6049740;23;20179;-80
2022/01/13 10:40:47;;;;;;;19.03;16.63;;;;;;;16.97;41.25;99380.47;6074682;23;20454;-80
2022/01/13 10:43:21;;;;;;;18.93;16.70;;;;;;;16.03;41.04;99215.81;6074248;23;20646;-80
2022/01/13 10:45:52;;;;;;;17.57;15.67;;;;;;;16.52;41.56;99311.81;6073594;23;20559;-80
2022/01/13 10:48:20;;;;;;;18.70;16.40;;;;;;;19.21;41.32;99774.25;6074363;23;20179;-80
2022/01/13 10:51:02;;;;;;;17.73;15.93;;;;;;;18.79;41.56;99707.38;6098180;23;20210;-79
2022/01/13 10:53:39;;;;;;;18.47;15.97;;;;;;;18.39;41.65;99636.41;6051165;23;20198;-81
2022/01/13 10:56:08;;;;;;;17.90;15.87;;;;;;;18.91;41.65;99726.09;6073620;23;20195;-79
2022/01/13 10:58:57;;;;;;;16.20;14.53;;;;;;;19.08;41.43;99752.09;6097045;23;20591;-80
2022/01/13 11:01:33;;;;;;;17.13;15.30;;;;;;;19.20;41.57;99785.22;6123550;23;20167;-80
2022/01/13 11:04:00;;;;;;;17.80;15.00;;;;;;;18.54;41.67;99658.84;6073005;23;20159;-79
2022/01/13 11:06:28;;;;;;;17.13;14.73;;;;;;;18.88;41.85;99718.25;6050270;23;20918;-80
2022/01/13 11:08:57;;;;;;;15.97;14.27;;;;;;;18.55;41.85;99672.44;6098755;23;20650;-80
2022/01/13 11:11:29;;;;;;;16.67;14.87;;;;;;;18.68;41.74;99713.34;6052163;23;20551;-80
2022/01/13 11:13:59;;;;;;;16.93;14.57;;;;;;;18.86;41.63;99730.00;6052155;23;20498;-79
2022/01/13 11:16:29;;;;;;;16.77;14.93;;;;;;;18.33;41.79;99634.28;6099879;23;20195;-78
2022/01/13 11:18:56;;;;;;;16.73;14.40;;;;;;;19.20;41.76;99791.22;6052584;23;20563;-79
2022/01/13 11:21:23;;;;;;;16.37;14.67;;;;;;;17.89;41.58;99554.56;6075680;23;20213;-79
2022/01/13 11:23:50;;;;;;;16.33;14.53;;;;;;;18.84;41.78;99724.78;6074702;23;20186;-79
2022/01/13 11:26:17;;;;;;;16.27;14.53;;;;;;;18.31;41.82;99623.09;6092325;23;20273;-79
2022/01/13 11:28:43;;;;;;;15.80;13.60;;;;;;;18.38;41.86;99634.66;6153084;23;20503;-80
2022/01/13 11:31:10;;;;;;;16.20;14.23;;;;;;;18.40;41.77;99639.09;6152638;23;20661;-81
2022/01/13 11:33:38;;;;;;;15.53;13.83;;;;;;;18.29;41.91;99611.91;6103485;23;20185;-81
2022/01/13 11:36:06;;;;;;;14.87;13.27;;;;;;;19.19;41.79;99752.88;6128144;23;20481;-80
2022/01/13 11:38:33;;;;;;;15.30;13.73;;;;;;;17.99;41.85;99544.34;6127666;23;20242;-79
2022/01/13 11:41:04;;;;;;;15.17;13.57;;;;;;;18.34;42.02;99597.84;6153105;23;20511;-80
2022/01/13 11:43:36;;;;;;;15.03;13.53;;;;;;;14.20;41.89;99000.91;6151735;23;20159;-79
2022/01/13 11:46:19;;;;;;;14.87;13.33;;;;;;;17.58;41.99;99460.59;6153392;23;20202;-79
2022/01/13 11:48:53;;;;;;;13.73;12.33;;;;;;;19.17;42.00;99750.22;6151997;23;20197;-80
2022/01/13 11:51:21;;;;;;;15.03;13.43;;;;;;;19.18;41.93;99748.53;6127801;23;20185;-79
2022/01/13 11:53:55;;;;;;;15.23;13.63;;;;;;;19.17;42.18;99747.66;6127667;23;20178;-79
2022/01/13 11:56:22;;;;;;;14.77;13.17;;;;;;;19.18;42.22;99748.53;6152197;23;20539;-81
2022/01/13 11:58:49;;;;;;;14.73;12.47;;;;;;;16.53;42.03;99366.91;6127737;23;20194;-83
2022/01/13 12:01:32;;;;;;;13.30;11.90;;;;;;;16.70;41.99;99323.41;6151739;23;20802;-82
2022/01/13 12:04:01;;;;;;;15.17;13.53;;;;;;;18.68;42.15;99667.50;6150980;23;20170;-80
2022/01/13 12:06:46;;;;;;;13.33;11.70;;;;;;;15.13;41.88;99084.41;6127810;23;20198;-80
2022/01/13 12:09:22;;;;;;;14.37;12.73;;;;;;;16.90;42.08;99358.78;6127216;23;20515;-80
2022/01/13 12:11:55;;;;;;;15.57;13.10;;;;;;;16.69;42.06;99389.28;6155343;23;20559;-80
2022/01/13 12:14:26;;;;;;;14.63;12.33;;;;;;;19.16;42.15;99752.66;6103684;23;20263;-77
2022/01/13 12:16:59;;;;;;;13.33;11.93;;;;;;;17.35;42.14;99424.94;6153798;23;20728;-81
2022/01/13 12:19:36;;;;;;;13.73;12.33;;;;;;;14.90;41.99;98989.72;6128782;23;20197;-82
2022/01/13 12:22:13;;;;;;;15.03;12.80;;;;;;;19.16;41.98;99739.91;6152137;23;20162;-80
2022/01/13 12:24:55;;;;;;;12.87;11.57;;;;;;;16.37;42.22;99282.69;6127775;23;20225;-81
2022/01/13 12:27:24;;;;;;;14.13;12.73;;;;;;;16.78;41.81;99347.69;6128903;23;20232;-79
2022/01/13 12:30:09;;;;;;;17.13;15.20;;;;;;;17.08;41.39;99379.66;6129029;23;20210;-80
2022/01/13 12:32:39;;;;;;;16.50;14.73;;;;;;;19.17;41.61;99746.78;6129859;23;20213;-79
2022/01/13 12:35:09;;;;;;;16.50;14.80;;;;;;;16.86;41.59;99333.94;6127284;23;20560;-80
2022/01/13 12:37:39;;;;;;;16.07;14.40;;;;;;;18.60;41.77;99638.91;6128677;23;20178;-80
2022/01/13 12:40:16;;;;;;;16.23;14.53;;;;;;;15.01;41.70;99002.44;6153193;23;20523;-82
2022/01/13 12:42:52;;;;;;;15.43;13.83;;;;;;;18.43;41.95;99626.56;6126616;23;20162;-81
2022/01/13 12:45:32;;;;;;;14.27;12.77;;;;;;;19.15;41.93;99718.63;6103550;23;20268;-83
2022/01/13 12:48:07;;;;;;;13.70;12.30;;;;;;;18.84;42.11;99676.38;6129070;23;20193;-89
2022/01/13 12:50:45;;;;;;;14.93;13.07;;;;;;;18.42;41.99;99611.19;6127057;23;20170;-84
2022/01/13 12:53:15;;;;;;;15.07;13.47;;;;;;;16.13;41.93;99245.28;6126756;23;20228;-83
2022/01/13 12:55:45;;;;;;;15.20;13.57;;;;;;;11.85;42.19;98526.28;6104435;23;20190;-81
2022/01/13 12:58:11;;;;;;;14.30;12.80;;;;;;;15.42;42.15;99059.75;6128425;23;20174;-80